sensor_id;sensor_type;location;lat;lon;timestamp;P1;durP1;ratioP1;P2;durP2;ratioP2
64063;SDS011;50314;50.618;10.642;2023-04-25T00:00:21;1.42;;;1.33;;
64063;SDS011;50314;50.618;10.642;2023-04-25T00:02:47;1.90;;;1.70;;
64063;SDS011;50314;50.618;10.642;2023-04-25T00:05:12;1.50;;;1.33;;
64063;SDS011;50314;50.618;10.642;2023-04-25T00:07:40;1.92;;;1.83;;
64063;SDS011;50314;50.618;10.642;2023-04-25T00:10:07;1.75;;;1.20;;
64063;SDS011;50314;50.618;10.642;2023-04-25T00:12:33;2.10;;;1.60;;
64063;SDS011;50314;50.618;10.642;2023-04-25T00:14:59;1.40;;;1.30;;
64063;SDS011;50314;50.618;10.642;2023-04-25T00:17:25;1.55;;;1.30;;
64063;SDS011;50314;50.618;10.642;2023-04-25T00:19:51;1.90;;;1.50;;
64063;SDS011;50314;50.618;10.642;2023-04-25T00:22:17;1.10;;;1.00;;
64063;SDS011;50314;50.618;10.642;2023-04-25T00:24:43;1.50;;;1.40;;
64063;SDS011;50314;50.618;10.642;2023-04-25T00:27:08;1.13;;;1.02;;
64063;SDS011;50314;50.618;10.642;2023-04-25T00:29:34;1.60;;;1.42;;
64063;SDS011;50314;50.618;10.642;2023-04-25T00:31:59;1.40;;;1.30;;
64063;SDS011;50314;50.618;10.642;2023-04-25T00:34:25;1.42;;;1.30;;
64063;SDS011;50314;50.618;10.642;2023-04-25T00:36:50;1.52;;;1.42;;
64063;SDS011;50314;50.618;10.642;2023-04-25T00:39:16;1.05;;;1.05;;
64063;SDS011;50314;50.618;10.642;2023-04-25T00:41:41;2.03;;;1.70;;
64063;SDS011;50314;50.618;10.642;2023-04-25T00:44:08;1.50;;;1.38;;
64063;SDS011;50314;50.618;10.642;2023-04-25T00:46:36;2.00;;;1.42;;
64063;SDS011;50314;50.618;10.642;2023-04-25T00:49:02;1.42;;;1.33;;
64063;SDS011;50314;50.618;10.642;2023-04-25T00:51:27;1.40;;;1.30;;
64063;SDS011;50314;50.618;10.642;2023-04-25T00:53:53;1.50;;;1.40;;
64063;SDS011;50314;50.618;10.642;2023-04-25T00:56:19;1.60;;;1.45;;
64063;SDS011;50314;50.618;10.642;2023-04-25T00:58:46;1.70;;;1.60;;
64063;SDS011;50314;50.618;10.642;2023-04-25T01:01:13;1.73;;;1.63;;
64063;SDS011;50314;50.618;10.642;2023-04-25T01:03:38;1.42;;;1.30;;
64063;SDS011;50314;50.618;10.642;2023-04-25T01:06:08;1.48;;;1.27;;
64063;SDS011;50314;50.618;10.642;2023-04-25T01:08:35;1.50;;;1.40;;
64063;SDS011;50314;50.618;10.642;2023-04-25T01:11:01;1.45;;;1.35;;
64063;SDS011;50314;50.618;10.642;2023-04-25T01:13:26;1.60;;;1.50;;
64063;SDS011;50314;50.618;10.642;2023-04-25T01:15:52;1.40;;;1.30;;
64063;SDS011;50314;50.618;10.642;2023-04-25T01:18:18;1.40;;;1.30;;
64063;SDS011;50314;50.618;10.642;2023-04-25T01:20:44;1.30;;;1.20;;
64063;SDS011;50314;50.618;10.642;2023-04-25T01:23:10;1.48;;;1.38;;
64063;SDS011;50314;50.618;10.642;2023-04-25T01:25:36;1.38;;;1.20;;
64063;SDS011;50314;50.618;10.642;2023-04-25T01:28:02;1.60;;;1.50;;
64063;SDS011;50314;50.618;10.642;2023-04-25T01:30:28;1.30;;;1.20;;
64063;SDS011;50314;50.618;10.642;2023-04-25T01:32:54;1.30;;;1.20;;
64063;SDS011;50314;50.618;10.642;2023-04-25T01:35:21;1.10;;;1.00;;
64063;SDS011;50314;50.618;10.642;2023-04-25T01:37:49;1.55;;;1.45;;
64063;SDS011;50314;50.618;10.642;2023-04-25T01:40:15;1.52;;;1.25;;
64063;SDS011;50314;50.618;10.642;2023-04-25T01:42:44;1.63;;;1.52;;
64063;SDS011;50314;50.618;10.642;2023-04-25T01:45:10;1.58;;;1.20;;
64063;SDS011;50314;50.618;10.642;2023-04-25T01:47:37;1.88;;;1.60;;
64063;SDS011;50314;50.618;10.642;2023-04-25T01:50:04;1.38;;;1.27;;
64063;SDS011;50314;50.618;10.642;2023-04-25T01:54:57;1.55;;;1.23;;
64063;SDS011;50314;50.618;10.642;2023-04-25T01:57:24;1.65;;;1.55;;
64063;SDS011;50314;50.618;10.642;2023-04-25T02:00:00;1.60;;;1.50;;
64063;SDS011;50314;50.618;10.642;2023-04-25T02:02:28;1.50;;;1.40;;
64063;SDS011;50314;50.618;10.642;2023-04-25T02:04:54;1.77;;;1.60;;
64063;SDS011;50314;50.618;10.642;2023-04-25T02:07:20;1.67;;;1.55;;
64063;SDS011;50314;50.618;10.642;2023-04-25T02:09:45;1.35;;;1.25;;
64063;SDS011;50314;50.618;10.642;2023-04-25T02:12:11;1.10;;;1.00;;
64063;SDS011;50314;50.618;10.642;2023-04-25T02:14:36;1.48;;;1.38;;
64063;SDS011;50314;50.618;10.642;2023-04-25T02:17:02;1.40;;;1.30;;
64063;SDS011;50314;50.618;10.642;2023-04-25T02:19:27;2.20;;;1.58;;
64063;SDS011;50314;50.618;10.642;2023-04-25T02:21:53;1.70;;;1.60;;
64063;SDS011;50314;50.618;10.642;2023-04-25T02:24:18;1.58;;;1.48;;
64063;SDS011;50314;50.618;10.642;2023-04-25T02:26:44;1.52;;;1.42;;
64063;SDS011;50314;50.618;10.642;2023-04-25T02:29:09;1.40;;;1.30;;
64063;SDS011;50314;50.618;10.642;2023-04-25T02:31:35;1.65;;;1.55;;
64063;SDS011;50314;50.618;10.642;2023-04-25T02:34:00;1.50;;;1.40;;
64063;SDS011;50314;50.618;10.642;2023-04-25T02:36:26;1.63;;;1.38;;
64063;SDS011;50314;50.618;10.642;2023-04-25T02:38:52;1.95;;;1.75;;
64063;SDS011;50314;50.618;10.642;2023-04-25T02:41:18;1.45;;;1.35;;
64063;SDS011;50314;50.618;10.642;2023-04-25T02:43:43;1.60;;;1.50;;
64063;SDS011;50314;50.618;10.642;2023-04-25T02:46:09;1.30;;;1.20;;
64063;SDS011;50314;50.618;10.642;2023-04-25T02:48:34;1.60;;;1.50;;
64063;SDS011;50314;50.618;10.642;2023-04-25T02:51:00;1.80;;;1.70;;
64063;SDS011;50314;50.618;10.642;2023-04-25T02:53:25;1.63;;;1.52;;
64063;SDS011;50314;50.618;10.642;2023-04-25T02:55:51;1.48;;;1.38;;
64063;SDS011;50314;50.618;10.642;2023-04-25T02:58:17;1.85;;;1.50;;
64063;SDS011;50314;50.618;10.642;2023-04-25T03:00:43;2.60;;;1.70;;
64063;SDS011;50314;50.618;10.642;2023-04-25T03:03:09;1.50;;;1.40;;
64063;SDS011;50314;50.618;10.642;2023-04-25T03:05:34;1.85;;;1.75;;
64063;SDS011;50314;50.618;10.642;2023-04-25T03:08:00;2.92;;;2.72;;
64063;SDS011;50314;50.618;10.642;2023-04-25T03:10:25;1.70;;;1.60;;
64063;SDS011;50314;50.618;10.642;2023-04-25T03:12:51;2.50;;;2.30;;
64063;SDS011;50314;50.618;10.642;2023-04-25T03:15:16;2.42;;;2.22;;
64063;SDS011;50314;50.618;10.642;2023-04-25T03:17:42;2.33;;;2.22;;
64063;SDS011;50314;50.618;10.642;2023-04-25T03:20:07;2.22;;;2.05;;
64063;SDS011;50314;50.618;10.642;2023-04-25T03:22:33;2.60;;;2.40;;
64063;SDS011;50314;50.618;10.642;2023-04-25T03:24:59;2.03;;;1.85;;
64063;SDS011;50314;50.618;10.642;2023-04-25T03:27:24;2.75;;;2.55;;
64063;SDS011;50314;50.618;10.642;2023-04-25T03:29:50;2.35;;;2.15;;
64063;SDS011;50314;50.618;10.642;2023-04-25T03:32:16;1.92;;;1.83;;
64063;SDS011;50314;50.618;10.642;2023-04-25T03:34:41;2.55;;;2.35;;
64063;SDS011;50314;50.618;10.642;2023-04-25T03:37:07;2.28;;;1.98;;
64063;SDS011;50314;50.618;10.642;2023-04-25T03:39:32;2.63;;;2.42;;
64063;SDS011;50314;50.618;10.642;2023-04-25T03:41:57;1.77;;;1.67;;
64063;SDS011;50314;50.618;10.642;2023-04-25T03:44:23;2.55;;;2.15;;
64063;SDS011;50314;50.618;10.642;2023-04-25T03:46:49;3.03;;;2.72;;
64063;SDS011;50314;50.618;10.642;2023-04-25T03:49:16;2.20;;;2.00;;
64063;SDS011;50314;50.618;10.642;2023-04-25T03:51:41;2.30;;;2.10;;
64063;SDS011;50314;50.618;10.642;2023-04-25T03:54:07;2.17;;;1.98;;
64063;SDS011;50314;50.618;10.642;2023-04-25T03:56:32;2.08;;;1.98;;
64063;SDS011;50314;50.618;10.642;2023-04-25T03:58:58;2.08;;;1.98;;
64063;SDS011;50314;50.618;10.642;2023-04-25T04:01:23;2.50;;;2.30;;
64063;SDS011;50314;50.618;10.642;2023-04-25T04:03:49;2.42;;;2.22;;
64063;SDS011;50314;50.618;10.642;2023-04-25T04:06:14;3.03;;;2.35;;
64063;SDS011;50314;50.618;10.642;2023-04-25T04:08:39;2.53;;;2.33;;
64063;SDS011;50314;50.618;10.642;2023-04-25T04:11:05;2.00;;;1.80;;
64063;SDS011;50314;50.618;10.642;2023-04-25T04:13:31;2.78;;;2.63;;
64063;SDS011;50314;50.618;10.642;2023-04-25T04:15:59;3.08;;;2.88;;
64063;SDS011;50314;50.618;10.642;2023-04-25T04:18:25;1.95;;;1.85;;
64063;SDS011;50314;50.618;10.642;2023-04-25T04:20:50;2.20;;;2.10;;
64063;SDS011;50314;50.618;10.642;2023-04-25T04:23:16;1.83;;;1.60;;
64063;SDS011;50314;50.618;10.642;2023-04-25T04:25:41;2.42;;;2.22;;
64063;SDS011;50314;50.618;10.642;2023-04-25T04:28:07;1.90;;;1.80;;
64063;SDS011;50314;50.618;10.642;2023-04-25T04:30:32;2.20;;;2.03;;
64063;SDS011;50314;50.618;10.642;2023-04-25T04:33:01;2.70;;;2.45;;
64063;SDS011;50314;50.618;10.642;2023-04-25T04:35:27;2.22;;;2.03;;
64063;SDS011;50314;50.618;10.642;2023-04-25T04:37:53;1.95;;;1.77;;
64063;SDS011;50314;50.618;10.642;2023-04-25T04:40:19;1.85;;;1.75;;
64063;SDS011;50314;50.618;10.642;2023-04-25T04:42:45;2.45;;;2.25;;
64063;SDS011;50314;50.618;10.642;2023-04-25T04:45:11;2.47;;;2.30;;
64063;SDS011;50314;50.618;10.642;2023-04-25T04:47:37;2.13;;;2.03;;
64063;SDS011;50314;50.618;10.642;2023-04-25T04:52:32;2.40;;;2.28;;
64063;SDS011;50314;50.618;10.642;2023-04-25T04:54:57;2.38;;;2.17;;
64063;SDS011;50314;50.618;10.642;2023-04-25T04:57:22;1.67;;;1.58;;
64063;SDS011;50314;50.618;10.642;2023-04-25T04:59:48;2.30;;;2.20;;
64063;SDS011;50314;50.618;10.642;2023-04-25T05:02:15;2.90;;;2.55;;
64063;SDS011;50314;50.618;10.642;2023-04-25T05:04:40;2.90;;;1.98;;
64063;SDS011;50314;50.618;10.642;2023-04-25T05:07:05;2.75;;;2.55;;
64063;SDS011;50314;50.618;10.642;2023-04-25T05:09:31;3.25;;;3.05;;
64063;SDS011;50314;50.618;10.642;2023-04-25T05:11:56;2.60;;;2.05;;
64063;SDS011;50314;50.618;10.642;2023-04-25T05:14:22;2.00;;;1.90;;
64063;SDS011;50314;50.618;10.642;2023-04-25T05:16:48;2.50;;;2.30;;
64063;SDS011;50314;50.618;10.642;2023-04-25T05:19:13;2.03;;;1.83;;
64063;SDS011;50314;50.618;10.642;2023-04-25T05:21:39;2.60;;;2.40;;
64063;SDS011;50314;50.618;10.642;2023-04-25T05:24:04;2.55;;;2.35;;
64063;SDS011;50314;50.618;10.642;2023-04-25T05:26:30;2.00;;;1.90;;
64063;SDS011;50314;50.618;10.642;2023-04-25T05:28:59;2.22;;;1.73;;
64063;SDS011;50314;50.618;10.642;2023-04-25T05:31:24;2.55;;;1.70;;
64063;SDS011;50314;50.618;10.642;2023-04-25T05:33:50;1.90;;;1.80;;
64063;SDS011;50314;50.618;10.642;2023-04-25T05:36:15;1.70;;;1.60;;
64063;SDS011;50314;50.618;10.642;2023-04-25T05:38:41;1.95;;;1.85;;
64063;SDS011;50314;50.618;10.642;2023-04-25T05:41:07;1.88;;;1.73;;
64063;SDS011;50314;50.618;10.642;2023-04-25T05:43:32;1.90;;;1.52;;
64063;SDS011;50314;50.618;10.642;2023-04-25T05:45:58;2.55;;;2.20;;
64063;SDS011;50314;50.618;10.642;2023-04-25T05:48:24;1.45;;;1.35;;
64063;SDS011;50314;50.618;10.642;2023-04-25T05:50:49;2.33;;;2.10;;
64063;SDS011;50314;50.618;10.642;2023-04-25T05:53:16;3.80;;;1.80;;
64063;SDS011;50314;50.618;10.642;2023-04-25T05:55:42;2.58;;;2.38;;
64063;SDS011;50314;50.618;10.642;2023-04-25T05:58:07;1.90;;;1.70;;
64063;SDS011;50314;50.618;10.642;2023-04-25T06:00:33;2.25;;;1.85;;
64063;SDS011;50314;50.618;10.642;2023-04-25T06:02:58;2.42;;;2.28;;
64063;SDS011;50314;50.618;10.642;2023-04-25T06:05:24;1.70;;;1.60;;
64063;SDS011;50314;50.618;10.642;2023-04-25T06:07:50;2.10;;;1.90;;
64063;SDS011;50314;50.618;10.642;2023-04-25T06:10:15;2.45;;;2.28;;
64063;SDS011;50314;50.618;10.642;2023-04-25T06:12:41;2.72;;;2.05;;
64063;SDS011;50314;50.618;10.642;2023-04-25T06:15:06;2.05;;;1.85;;
64063;SDS011;50314;50.618;10.642;2023-04-25T06:17:32;2.67;;;1.90;;
64063;SDS011;50314;50.618;10.642;2023-04-25T06:19:58;4.03;;;1.88;;
64063;SDS011;50314;50.618;10.642;2023-04-25T06:22:23;3.55;;;2.55;;
64063;SDS011;50314;50.618;10.642;2023-04-25T06:24:49;4.13;;;2.28;;
64063;SDS011;50314;50.618;10.642;2023-04-25T06:27:14;4.00;;;2.55;;
64063;SDS011;50314;50.618;10.642;2023-04-25T06:29:40;4.60;;;3.20;;
64063;SDS011;50314;50.618;10.642;2023-04-25T06:32:05;3.88;;;2.78;;
64063;SDS011;50314;50.618;10.642;2023-04-25T06:34:31;2.92;;;2.00;;
64063;SDS011;50314;50.618;10.642;2023-04-25T06:36:56;4.07;;;2.80;;
64063;SDS011;50314;50.618;10.642;2023-04-25T06:39:21;3.08;;;1.95;;
64063;SDS011;50314;50.618;10.642;2023-04-25T06:41:50;5.63;;;2.33;;
64063;SDS011;50314;50.618;10.642;2023-04-25T06:44:16;3.20;;;2.50;;
64063;SDS011;50314;50.618;10.642;2023-04-25T06:46:41;4.18;;;1.85;;
64063;SDS011;50314;50.618;10.642;2023-04-25T06:49:07;3.47;;;2.20;;
64063;SDS011;50314;50.618;10.642;2023-04-25T06:51:32;2.03;;;1.73;;
64063;SDS011;50314;50.618;10.642;2023-04-25T06:53:58;3.72;;;2.47;;
64063;SDS011;50314;50.618;10.642;2023-04-25T06:56:24;2.85;;;2.03;;
64063;SDS011;50314;50.618;10.642;2023-04-25T06:58:49;3.15;;;2.08;;
64063;SDS011;50314;50.618;10.642;2023-04-25T07:01:15;2.75;;;1.80;;
64063;SDS011;50314;50.618;10.642;2023-04-25T07:03:41;3.15;;;2.65;;
64063;SDS011;50314;50.618;10.642;2023-04-25T07:06:06;2.38;;;2.17;;
64063;SDS011;50314;50.618;10.642;2023-04-25T07:08:32;2.35;;;2.08;;
64063;SDS011;50314;50.618;10.642;2023-04-25T07:10:57;2.33;;;1.98;;
64063;SDS011;50314;50.618;10.642;2023-04-25T07:13:23;2.25;;;1.83;;
64063;SDS011;50314;50.618;10.642;2023-04-25T07:15:48;3.53;;;1.85;;
64063;SDS011;50314;50.618;10.642;2023-04-25T07:18:14;2.10;;;1.90;;
64063;SDS011;50314;50.618;10.642;2023-04-25T07:20:40;3.10;;;2.60;;
64063;SDS011;50314;50.618;10.642;2023-04-25T07:23:05;2.38;;;1.58;;
64063;SDS011;50314;50.618;10.642;2023-04-25T07:25:31;1.90;;;1.73;;
64063;SDS011;50314;50.618;10.642;2023-04-25T07:27:56;2.30;;;2.10;;
64063;SDS011;50314;50.618;10.642;2023-04-25T07:30:22;3.42;;;2.38;;
64063;SDS011;50314;50.618;10.642;2023-04-25T07:32:48;4.85;;;2.25;;
64063;SDS011;50314;50.618;10.642;2023-04-25T07:35:13;2.42;;;2.00;;
64063;SDS011;50314;50.618;10.642;2023-04-25T07:37:39;3.22;;;1.83;;
64063;SDS011;50314;50.618;10.642;2023-04-25T07:40:05;6.20;;;2.40;;
64063;SDS011;50314;50.618;10.642;2023-04-25T07:42:31;3.63;;;2.25;;
64063;SDS011;50314;50.618;10.642;2023-04-25T07:44:57;2.28;;;1.70;;
64063;SDS011;50314;50.618;10.642;2023-04-25T07:47:22;2.47;;;1.65;;
64063;SDS011;50314;50.618;10.642;2023-04-25T07:49:48;2.63;;;1.75;;
64063;SDS011;50314;50.618;10.642;2023-04-25T07:52:13;1.95;;;1.80;;
64063;SDS011;50314;50.618;10.642;2023-04-25T07:54:39;2.97;;;2.15;;
64063;SDS011;50314;50.618;10.642;2023-04-25T07:57:04;2.47;;;2.00;;
64063;SDS011;50314;50.618;10.642;2023-04-25T07:59:31;4.28;;;1.92;;
64063;SDS011;50314;50.618;10.642;2023-04-25T08:01:57;2.78;;;2.00;;
64063;SDS011;50314;50.618;10.642;2023-04-25T08:04:23;3.05;;;2.28;;
64063;SDS011;50314;50.618;10.642;2023-04-25T08:06:49;2.70;;;2.50;;
64063;SDS011;50314;50.618;10.642;2023-04-25T08:09:15;2.33;;;2.13;;
64063;SDS011;50314;50.618;10.642;2023-04-25T08:11:40;3.88;;;2.25;;
64063;SDS011;50314;50.618;10.642;2023-04-25T08:14:06;2.40;;;2.20;;
64063;SDS011;50314;50.618;10.642;2023-04-25T08:16:32;2.03;;;1.80;;
64063;SDS011;50314;50.618;10.642;2023-04-25T08:18:58;2.35;;;1.75;;
64063;SDS011;50314;50.618;10.642;2023-04-25T08:21:24;2.13;;;1.92;;
64063;SDS011;50314;50.618;10.642;2023-04-25T08:23:51;2.28;;;2.00;;
64063;SDS011;50314;50.618;10.642;2023-04-25T08:26:17;1.63;;;1.45;;
64063;SDS011;50314;50.618;10.642;2023-04-25T08:28:42;4.47;;;2.25;;
64063;SDS011;50314;50.618;10.642;2023-04-25T08:31:08;1.85;;;1.75;;
64063;SDS011;50314;50.618;10.642;2023-04-25T08:33:33;2.10;;;1.90;;
64063;SDS011;50314;50.618;10.642;2023-04-25T08:35:59;2.30;;;2.10;;
64063;SDS011;50314;50.618;10.642;2023-04-25T08:38:24;2.13;;;1.88;;
64063;SDS011;50314;50.618;10.642;2023-04-25T08:40:50;1.90;;;1.80;;
64063;SDS011;50314;50.618;10.642;2023-04-25T08:43:19;2.13;;;1.92;;
64063;SDS011;50314;50.618;10.642;2023-04-25T08:45:45;1.83;;;1.73;;
64063;SDS011;50314;50.618;10.642;2023-04-25T08:48:12;3.08;;;2.78;;
64063;SDS011;50314;50.618;10.642;2023-04-25T08:50:52;2.80;;;2.60;;
64063;SDS011;50314;50.618;10.642;2023-04-25T08:53:21;2.80;;;1.85;;
64063;SDS011;50314;50.618;10.642;2023-04-25T08:55:50;2.22;;;2.10;;
64063;SDS011;50314;50.618;10.642;2023-04-25T08:58:18;1.73;;;1.63;;
64063;SDS011;50314;50.618;10.642;2023-04-25T09:00:45;2.28;;;2.08;;
64063;SDS011;50314;50.618;10.642;2023-04-25T09:03:12;1.80;;;1.63;;
64063;SDS011;50314;50.618;10.642;2023-04-25T09:05:37;1.75;;;1.50;;
64063;SDS011;50314;50.618;10.642;2023-04-25T09:08:05;1.85;;;1.33;;
64063;SDS011;50314;50.618;10.642;2023-04-25T09:10:31;1.20;;;1.20;;
64063;SDS011;50314;50.618;10.642;2023-04-25T09:13:06;1.42;;;1.33;;
64063;SDS011;50314;50.618;10.642;2023-04-25T09:15:53;1.50;;;1.40;;
64063;SDS011;50314;50.618;10.642;2023-04-25T09:18:23;1.38;;;1.23;;
64063;SDS011;50314;50.618;10.642;2023-04-25T09:20:53;1.42;;;1.33;;
64063;SDS011;50314;50.618;10.642;2023-04-25T09:23:20;1.33;;;1.23;;
64063;SDS011;50314;50.618;10.642;2023-04-25T09:28:16;1.50;;;1.10;;
64063;SDS011;50314;50.618;10.642;2023-04-25T09:30:49;1.45;;;1.35;;
64063;SDS011;50314;50.618;10.642;2023-04-25T09:33:14;1.30;;;1.20;;
64063;SDS011;50314;50.618;10.642;2023-04-25T09:35:40;1.30;;;1.20;;
64063;SDS011;50314;50.618;10.642;2023-04-25T09:38:10;1.35;;;1.10;;
64063;SDS011;50314;50.618;10.642;2023-04-25T09:40:44;1.33;;;1.23;;
64063;SDS011;50314;50.618;10.642;2023-04-25T09:43:20;1.83;;;1.25;;
64063;SDS011;50314;50.618;10.642;2023-04-25T09:45:47;1.55;;;1.45;;
64063;SDS011;50314;50.618;10.642;2023-04-25T09:48:20;1.30;;;1.20;;
64063;SDS011;50314;50.618;10.642;2023-04-25T09:53:41;2.03;;;1.20;;
64063;SDS011;50314;50.618;10.642;2023-04-25T09:56:16;1.30;;;1.13;;
64063;SDS011;50314;50.618;10.642;2023-04-25T09:58:44;1.15;;;1.10;;
64063;SDS011;50314;50.618;10.642;2023-04-25T10:01:12;1.60;;;1.20;;
64063;SDS011;50314;50.618;10.642;2023-04-25T10:03:39;1.70;;;1.60;;
64063;SDS011;50314;50.618;10.642;2023-04-25T10:06:09;2.20;;;1.48;;
64063;SDS011;50314;50.618;10.642;2023-04-25T10:08:44;1.60;;;1.20;;
64063;SDS011;50314;50.618;10.642;2023-04-25T10:11:10;1.35;;;1.00;;
64063;SDS011;50314;50.618;10.642;2023-04-25T10:13:39;1.85;;;1.63;;
64063;SDS011;50314;50.618;10.642;2023-04-25T10:16:05;1.50;;;1.35;;
64063;SDS011;50314;50.618;10.642;2023-04-25T10:18:31;1.17;;;1.08;;
64063;SDS011;50314;50.618;10.642;2023-04-25T10:20:58;1.40;;;0.93;;
64063;SDS011;50314;50.618;10.642;2023-04-25T10:23:25;1.63;;;1.42;;
64063;SDS011;50314;50.618;10.642;2023-04-25T10:28:18;1.30;;;1.20;;
64063;SDS011;50314;50.618;10.642;2023-04-25T10:30:57;1.17;;;1.08;;
64063;SDS011;50314;50.618;10.642;2023-04-25T10:33:30;1.23;;;1.13;;
64063;SDS011;50314;50.618;10.642;2023-04-25T10:35:58;1.23;;;1.10;;
64063;SDS011;50314;50.618;10.642;2023-04-25T10:38:33;1.40;;;1.30;;
64063;SDS011;50314;50.618;10.642;2023-04-25T10:41:05;1.15;;;0.82;;
64063;SDS011;50314;50.618;10.642;2023-04-25T10:43:37;1.70;;;1.15;;
64063;SDS011;50314;50.618;10.642;2023-04-25T10:48:52;1.75;;;1.05;;
64063;SDS011;50314;50.618;10.642;2023-04-25T10:56:20;1.50;;;1.27;;
64063;SDS011;50314;50.618;10.642;2023-04-25T10:58:48;1.02;;;1.02;;
64063;SDS011;50314;50.618;10.642;2023-04-25T11:01:14;1.20;;;1.02;;
64063;SDS011;50314;50.618;10.642;2023-04-25T11:03:44;1.00;;;0.90;;
64063;SDS011;50314;50.618;10.642;2023-04-25T11:06:15;1.02;;;0.90;;
64063;SDS011;50314;50.618;10.642;2023-04-25T11:08:59;1.25;;;1.15;;
64063;SDS011;50314;50.618;10.642;2023-04-25T11:11:26;0.98;;;0.75;;
64063;SDS011;50314;50.618;10.642;2023-04-25T11:13:52;0.70;;;0.70;;
64063;SDS011;50314;50.618;10.642;2023-04-25T11:16:17;1.73;;;0.95;;
64063;SDS011;50314;50.618;10.642;2023-04-25T11:18:45;1.10;;;1.00;;
64063;SDS011;50314;50.618;10.642;2023-04-25T11:21:13;1.13;;;0.90;;
64063;SDS011;50314;50.618;10.642;2023-04-25T11:23:38;2.08;;;1.00;;
64063;SDS011;50314;50.618;10.642;2023-04-25T11:26:04;1.95;;;1.08;;
64063;SDS011;50314;50.618;10.642;2023-04-25T11:28:29;0.80;;;0.80;;
64063;SDS011;50314;50.618;10.642;2023-04-25T11:30:55;1.25;;;0.95;;
64063;SDS011;50314;50.618;10.642;2023-04-25T11:33:24;1.35;;;1.00;;
64063;SDS011;50314;50.618;10.642;2023-04-25T11:35:54;2.47;;;1.35;;
64063;SDS011;50314;50.618;10.642;2023-04-25T11:38:21;1.00;;;1.00;;
64063;SDS011;50314;50.618;10.642;2023-04-25T11:40:51;1.23;;;1.10;;
64063;SDS011;50314;50.618;10.642;2023-04-25T11:43:19;1.20;;;1.10;;
64063;SDS011;50314;50.618;10.642;2023-04-25T11:45:46;1.00;;;1.00;;
64063;SDS011;50314;50.618;10.642;2023-04-25T11:48:13;1.33;;;1.20;;
64063;SDS011;50314;50.618;10.642;2023-04-25T11:50:39;1.30;;;1.15;;
64063;SDS011;50314;50.618;10.642;2023-04-25T11:53:04;2.10;;;0.90;;
64063;SDS011;50314;50.618;10.642;2023-04-25T11:55:31;1.17;;;1.08;;
64063;SDS011;50314;50.618;10.642;2023-04-25T11:57:59;4.30;;;1.10;;
64063;SDS011;50314;50.618;10.642;2023-04-25T12:00:25;1.20;;;1.10;;
64063;SDS011;50314;50.618;10.642;2023-04-25T12:02:52;0.93;;;0.90;;
64063;SDS011;50314;50.618;10.642;2023-04-25T12:05:19;2.30;;;1.10;;
64063;SDS011;50314;50.618;10.642;2023-04-25T12:07:45;2.50;;;1.23;;
64063;SDS011;50314;50.618;10.642;2023-04-25T12:10:12;2.45;;;1.60;;
64063;SDS011;50314;50.618;10.642;2023-04-25T12:12:42;2.78;;;1.52;;
64063;SDS011;50314;50.618;10.642;2023-04-25T12:15:27;1.33;;;0.90;;
64063;SDS011;50314;50.618;10.642;2023-04-25T12:17:53;1.45;;;1.08;;
64063;SDS011;50314;50.618;10.642;2023-04-25T12:20:28;1.15;;;1.00;;
64063;SDS011;50314;50.618;10.642;2023-04-25T12:22:56;1.58;;;1.20;;
64063;SDS011;50314;50.618;10.642;2023-04-25T12:25:35;1.17;;;1.08;;
64063;SDS011;50314;50.618;10.642;2023-04-25T12:33:31;1.45;;;1.27;;
64063;SDS011;50314;50.618;10.642;2023-04-25T12:36:01;1.73;;;1.30;;
64063;SDS011;50314;50.618;10.642;2023-04-25T12:38:35;1.65;;;1.20;;
64063;SDS011;50314;50.618;10.642;2023-04-25T12:41:02;1.38;;;1.13;;
64063;SDS011;50314;50.618;10.642;2023-04-25T12:43:28;1.63;;;1.15;;
64063;SDS011;50314;50.618;10.642;2023-04-25T12:45:54;1.52;;;1.20;;
64063;SDS011;50314;50.618;10.642;2023-04-25T12:48:20;1.33;;;1.10;;
64063;SDS011;50314;50.618;10.642;2023-04-25T12:50:47;2.05;;;1.20;;
64063;SDS011;50314;50.618;10.642;2023-04-25T12:53:17;1.48;;;1.10;;
64063;SDS011;50314;50.618;10.642;2023-04-25T12:55:44;1.35;;;1.23;;
64063;SDS011;50314;50.618;10.642;2023-04-25T12:58:13;2.03;;;1.23;;
64063;SDS011;50314;50.618;10.642;2023-04-25T13:00:39;2.17;;;1.30;;
64063;SDS011;50314;50.618;10.642;2023-04-25T13:03:04;1.45;;;1.30;;
64063;SDS011;50314;50.618;10.642;2023-04-25T13:05:30;1.83;;;1.15;;
64063;SDS011;50314;50.618;10.642;2023-04-25T13:07:56;1.38;;;1.00;;
64063;SDS011;50314;50.618;10.642;2023-04-25T13:10:21;1.38;;;1.27;;
64063;SDS011;50314;50.618;10.642;2023-04-25T13:12:47;1.25;;;1.15;;
64063;SDS011;50314;50.618;10.642;2023-04-25T13:15:12;1.38;;;1.20;;
64063;SDS011;50314;50.618;10.642;2023-04-25T13:17:40;1.38;;;1.10;;
64063;SDS011;50314;50.618;10.642;2023-04-25T13:20:06;1.58;;;1.00;;
64063;SDS011;50314;50.618;10.642;2023-04-25T13:22:34;1.90;;;1.30;;
64063;SDS011;50314;50.618;10.642;2023-04-25T13:25:04;1.38;;;1.10;;
64063;SDS011;50314;50.618;10.642;2023-04-25T13:27:31;1.55;;;1.45;;
64063;SDS011;50314;50.618;10.642;2023-04-25T13:29:59;3.88;;;1.15;;
64063;SDS011;50314;50.618;10.642;2023-04-25T13:32:25;1.77;;;1.40;;
64063;SDS011;50314;50.618;10.642;2023-04-25T13:34:51;1.40;;;1.05;;
64063;SDS011;50314;50.618;10.642;2023-04-25T13:37:16;2.08;;;1.10;;
64063;SDS011;50314;50.618;10.642;2023-04-25T13:39:42;1.83;;;1.00;;
64063;SDS011;50314;50.618;10.642;2023-04-25T13:42:07;1.10;;;0.90;;
64063;SDS011;50314;50.618;10.642;2023-04-25T13:44:33;2.53;;;1.30;;
64063;SDS011;50314;50.618;10.642;2023-04-25T13:46:58;1.42;;;0.95;;
64063;SDS011;50314;50.618;10.642;2023-04-25T13:49:25;1.20;;;1.08;;
64063;SDS011;50314;50.618;10.642;2023-04-25T13:51:51;2.25;;;1.10;;
64063;SDS011;50314;50.618;10.642;2023-04-25T13:54:16;1.08;;;0.95;;
64063;SDS011;50314;50.618;10.642;2023-04-25T13:56:42;1.73;;;1.35;;
64063;SDS011;50314;50.618;10.642;2023-04-25T13:59:07;2.50;;;1.40;;
64063;SDS011;50314;50.618;10.642;2023-04-25T14:01:33;2.15;;;1.30;;
64063;SDS011;50314;50.618;10.642;2023-04-25T14:04:00;1.73;;;1.23;;
64063;SDS011;50314;50.618;10.642;2023-04-25T14:06:26;2.53;;;1.23;;
64063;SDS011;50314;50.618;10.642;2023-04-25T14:08:52;1.40;;;1.20;;
64063;SDS011;50314;50.618;10.642;2023-04-25T14:11:18;1.40;;;1.30;;
64063;SDS011;50314;50.618;10.642;2023-04-25T14:13:44;5.70;;;1.70;;
64063;SDS011;50314;50.618;10.642;2023-04-25T14:16:10;1.42;;;1.30;;
64063;SDS011;50314;50.618;10.642;2023-04-25T14:18:36;1.45;;;1.25;;
64063;SDS011;50314;50.618;10.642;2023-04-25T14:21:01;1.30;;;1.20;;
64063;SDS011;50314;50.618;10.642;2023-04-25T14:23:27;2.22;;;1.30;;
64063;SDS011;50314;50.618;10.642;2023-04-25T14:25:52;1.75;;;1.00;;
64063;SDS011;50314;50.618;10.642;2023-04-25T14:28:18;2.40;;;1.20;;
64063;SDS011;50314;50.618;10.642;2023-04-25T14:30:44;3.38;;;1.60;;
64063;SDS011;50314;50.618;10.642;2023-04-25T14:33:10;2.15;;;1.30;;
64063;SDS011;50314;50.618;10.642;2023-04-25T14:35:36;2.88;;;1.48;;
64063;SDS011;50314;50.618;10.642;2023-04-25T14:38:01;3.22;;;1.42;;
64063;SDS011;50314;50.618;10.642;2023-04-25T14:40:27;1.30;;;1.20;;
64063;SDS011;50314;50.618;10.642;2023-04-25T14:42:52;1.30;;;1.17;;
64063;SDS011;50314;50.618;10.642;2023-04-25T14:45:17;1.60;;;1.33;;
64063;SDS011;50314;50.618;10.642;2023-04-25T14:47:43;2.60;;;1.52;;
64063;SDS011;50314;50.618;10.642;2023-04-25T14:50:09;2.10;;;1.77;;
64063;SDS011;50314;50.618;10.642;2023-04-25T14:52:35;1.58;;;1.35;;
64063;SDS011;50314;50.618;10.642;2023-04-25T14:55:01;2.30;;;1.48;;